This is the latest recevied weather packets stored in our database for station/object OH2TI. If no packets are shown the sender has not sent any weather packets the latest 10 day(s).
| Time | Temp. | Humidity | Pressure | Rain* | Wind** | Luminosity | Snow |
|---|---|---|---|---|---|---|---|
| 1777576943 | 12.78° C | 65% | 1017.1 hPa | - | - | - | - |
| 1777576531 | 12.22° C | 66% | 1017 hPa | - | - | - | - |
| 1777575901 | 11.67° C | 71% | 1017 hPa | - | - | - | - |
| 1777575224 | 10.56° C | 75% | 1017 hPa | - | - | - | - |
| 1777574406 | 10.56° C | 72% | 1016.7 hPa | - | - | - | - |
| 1777573544 | 11.11° C | 72% | 1016.6 hPa | - | - | - | - |
| 1777572664 | 10.56° C | 74% | 1016.6 hPa | - | - | - | - |
| 1777572186 | 10° C | 74% | 1016.6 hPa | - | - | - | - |
| 1777571341 | 10° C | 75% | 1016.6 hPa | - | - | - | - |
| 1777570643 | 10° C | 75% | 1016.5 hPa | - | - | - | - |
| 1777570291 | 10° C | 75% | 1016.5 hPa | - | - | - | - |
| 1777569724 | 10° C | 75% | 1016.5 hPa | - | - | - | - |
| 1777569114 | 10° C | 74% | 1016.5 hPa | - | - | - | - |
| 1777568333 | 10° C | 74% | 1016.4 hPa | - | - | - | - |
| 1777567951 | 10° C | 75% | 1016.4 hPa | - | - | - | - |
| 1777567088 | 9.44° C | 75% | 1016.5 hPa | - | - | - | - |
| 1777566533 | 10° C | 76% | 1016.5 hPa | - | - | - | - |
| 1777566211 | 10° C | 75% | 1016.4 hPa | - | - | - | - |
| 1777565881 | 10° C | 75% | 1016.4 hPa | - | - | - | - |
| 1777565004 | 10.56° C | 72% | 1016.3 hPa | - | - | - | - |
| 1777564604 | 10.56° C | 73% | 1016.4 hPa | - | - | - | - |
| 1777564058 | 10° C | 73% | 1016.4 hPa | - | - | - | - |
| 1777563681 | 10.56° C | 71% | 1016.4 hPa | - | - | - | - |
| 1777563014 | 11.11° C | 70% | 1016.4 hPa | - | - | - | - |
| 1777562168 | 10° C | 74% | 1016.4 hPa | - | - | - | - |
* Rain since midnight (hover to see other rain measurements)
** Current wind speed in m/s (hover to see current wind gust speed)